sensor_id;sensor_type;location;lat;lon;timestamp;pressure;altitude;pressure_sealevel;temperature;humidity
43298;BME280;28892;55.640;37.532;2023-10-08T00:01:28;95480.06;;;7.61;61.87
43298;BME280;28892;55.640;37.532;2023-10-08T00:03:54;95468.34;;;7.41;62.91
43298;BME280;28892;55.640;37.532;2023-10-08T00:06:24;95461.31;;;7.52;62.00
43298;BME280;28892;55.640;37.532;2023-10-08T00:08:50;95466.50;;;7.41;62.42
43298;BME280;28892;55.640;37.532;2023-10-08T00:11:17;95467.25;;;7.32;62.14
43298;BME280;28892;55.640;37.532;2023-10-08T00:13:44;95469.88;;;7.32;62.11
43298;BME280;28892;55.640;37.532;2023-10-08T00:16:11;95453.09;;;7.48;61.46
43298;BME280;28892;55.640;37.532;2023-10-08T00:18:41;95474.03;;;7.22;62.04
43298;BME280;28892;55.640;37.532;2023-10-08T00:21:21;95471.09;;;7.19;61.61
43298;BME280;28892;55.640;37.532;2023-10-08T00:23:52;95464.09;;;7.35;61.33
43298;BME280;28892;55.640;37.532;2023-10-08T00:26:19;95474.56;;;7.24;61.74
43298;BME280;28892;55.640;37.532;2023-10-08T00:28:57;95479.19;;;7.45;61.39
43298;BME280;28892;55.640;37.532;2023-10-08T00:31:26;95460.25;;;7.58;60.11
43298;BME280;28892;55.640;37.532;2023-10-08T00:34:04;95459.72;;;7.56;59.55
43298;BME280;28892;55.640;37.532;2023-10-08T00:36:40;95470.22;;;7.46;60.18
43298;BME280;28892;55.640;37.532;2023-10-08T00:39:10;95467.19;;;7.26;61.07
43298;BME280;28892;55.640;37.532;2023-10-08T00:41:44;95503.34;;;7.31;60.59
43298;BME280;28892;55.640;37.532;2023-10-08T00:44:13;95475.78;;;7.11;60.89
43298;BME280;28892;55.640;37.532;2023-10-08T00:46:49;95480.47;;;7.04;61.58
43298;BME280;28892;55.640;37.532;2023-10-08T00:49:23;95481.50;;;7.36;61.77
43298;BME280;28892;55.640;37.532;2023-10-08T00:52:14;95468.06;;;7.37;60.96
43298;BME280;28892;55.640;37.532;2023-10-08T00:54:43;95460.63;;;7.29;60.92
43298;BME280;28892;55.640;37.532;2023-10-08T00:57:30;95471.41;;;7.27;60.14
43298;BME280;28892;55.640;37.532;2023-10-08T01:00:05;95473.59;;;7.36;60.47
43298;BME280;28892;55.640;37.532;2023-10-08T01:02:43;95459.19;;;7.11;59.90
43298;BME280;28892;55.640;37.532;2023-10-08T01:05:17;95464.78;;;7.20;60.39
43298;BME280;28892;55.640;37.532;2023-10-08T01:07:52;95438.56;;;7.03;61.10
43298;BME280;28892;55.640;37.532;2023-10-08T01:10:22;95459.47;;;7.58;59.60
43298;BME280;28892;55.640;37.532;2023-10-08T01:12:56;95474.03;;;7.22;59.41
43298;BME280;28892;55.640;37.532;2023-10-08T01:15:34;95475.25;;;7.09;59.87
43298;BME280;28892;55.640;37.532;2023-10-08T01:18:04;95472.03;;;7.02;60.33
43298;BME280;28892;55.640;37.532;2023-10-08T01:20:41;95460.44;;;7.03;60.60
43298;BME280;28892;55.640;37.532;2023-10-08T01:23:13;95450.69;;;7.04;60.44
43298;BME280;28892;55.640;37.532;2023-10-08T01:25:40;95472.84;;;7.08;60.76
43298;BME280;28892;55.640;37.532;2023-10-08T01:28:09;95476.38;;;7.19;60.48
43298;BME280;28892;55.640;37.532;2023-10-08T01:30:55;95480.00;;;7.12;60.14
43298;BME280;28892;55.640;37.532;2023-10-08T01:33:26;95475.59;;;6.85;61.08
43298;BME280;28892;55.640;37.532;2023-10-08T01:35:55;95476.00;;;7.37;59.56
43298;BME280;28892;55.640;37.532;2023-10-08T01:38:31;95470.94;;;6.98;59.87
43298;BME280;28892;55.640;37.532;2023-10-08T01:41:01;95458.66;;;6.76;60.24
43298;BME280;28892;55.640;37.532;2023-10-08T01:43:45;95471.63;;;7.16;59.41
43298;BME280;28892;55.640;37.532;2023-10-08T01:46:11;95467.72;;;6.91;59.72
43298;BME280;28892;55.640;37.532;2023-10-08T01:48:40;95481.94;;;6.90;59.85
43298;BME280;28892;55.640;37.532;2023-10-08T01:51:13;95474.47;;;6.81;59.60
43298;BME280;28892;55.640;37.532;2023-10-08T01:53:57;95471.94;;;6.92;60.09
43298;BME280;28892;55.640;37.532;2023-10-08T01:56:26;95464.78;;;6.87;59.22
43298;BME280;28892;55.640;37.532;2023-10-08T01:58:52;95459.31;;;6.61;59.58
43298;BME280;28892;55.640;37.532;2023-10-08T02:01:21;95467.81;;;6.68;60.17
43298;BME280;28892;55.640;37.532;2023-10-08T02:03:47;95448.31;;;6.69;59.24
43298;BME280;28892;55.640;37.532;2023-10-08T02:06:16;95471.06;;;6.81;59.36
43298;BME280;28892;55.640;37.532;2023-10-08T02:08:42;95467.72;;;6.58;59.67
43298;BME280;28892;55.640;37.532;2023-10-08T02:11:08;95438.97;;;6.56;59.64
43298;BME280;28892;55.640;37.532;2023-10-08T02:13:37;95476.00;;;6.72;58.90
43298;BME280;28892;55.640;37.532;2023-10-08T02:16:06;95452.31;;;6.72;58.60
43298;BME280;28892;55.640;37.532;2023-10-08T02:18:33;95471.56;;;6.78;58.38
43298;BME280;28892;55.640;37.532;2023-10-08T02:21:01;95475.78;;;6.79;58.31
43298;BME280;28892;55.640;37.532;2023-10-08T02:23:30;95478.38;;;6.74;58.22
43298;BME280;28892;55.640;37.532;2023-10-08T02:26:00;95469.44;;;6.47;58.99
43298;BME280;28892;55.640;37.532;2023-10-08T02:28:31;95449.28;;;6.58;58.64
43298;BME280;28892;55.640;37.532;2023-10-08T02:30:59;95480.38;;;6.61;58.70
43298;BME280;28892;55.640;37.532;2023-10-08T02:33:27;95449.56;;;6.94;58.18
43298;BME280;28892;55.640;37.532;2023-10-08T02:35:56;95475.84;;;6.84;58.06
43298;BME280;28892;55.640;37.532;2023-10-08T02:38:22;95454.78;;;6.56;57.77
43298;BME280;28892;55.640;37.532;2023-10-08T02:40:49;95450.56;;;6.55;58.47
43298;BME280;28892;55.640;37.532;2023-10-08T02:43:16;95470.34;;;6.91;57.76
43298;BME280;28892;55.640;37.532;2023-10-08T02:45:46;95472.97;;;6.58;58.57
43298;BME280;28892;55.640;37.532;2023-10-08T02:48:34;95476.38;;;6.59;58.83
43298;BME280;28892;55.640;37.532;2023-10-08T02:51:02;95464.59;;;6.66;58.43
43298;BME280;28892;55.640;37.532;2023-10-08T02:53:41;95467.16;;;6.56;58.34
43298;BME280;28892;55.640;37.532;2023-10-08T02:56:10;95469.69;;;6.46;58.61
43298;BME280;28892;55.640;37.532;2023-10-08T02:58:39;95449.47;;;6.51;58.62
43298;BME280;28892;55.640;37.532;2023-10-08T03:01:07;95472.59;;;6.49;58.84
43298;BME280;28892;55.640;37.532;2023-10-08T03:03:40;95453.00;;;6.35;57.85
43298;BME280;28892;55.640;37.532;2023-10-08T03:06:08;95462.16;;;6.32;59.18
43298;BME280;28892;55.640;37.532;2023-10-08T03:08:41;95452.78;;;6.41;58.67
43298;BME280;28892;55.640;37.532;2023-10-08T03:11:10;95449.31;;;6.36;58.62
43298;BME280;28892;55.640;37.532;2023-10-08T03:13:44;95461.09;;;6.28;58.96
43298;BME280;28892;55.640;37.532;2023-10-08T03:16:19;95466.28;;;6.23;59.18
43298;BME280;28892;55.640;37.532;2023-10-08T03:18:53;95443.41;;;6.23;59.23
43298;BME280;28892;55.640;37.532;2023-10-08T03:21:26;95460.09;;;6.34;59.07
43298;BME280;28892;55.640;37.532;2023-10-08T03:24:15;95453.56;;;6.14;59.40
43298;BME280;28892;55.640;37.532;2023-10-08T03:27:09;95436.25;;;6.19;59.75
43298;BME280;28892;55.640;37.532;2023-10-08T03:29:41;95468.75;;;6.29;59.22
43298;BME280;28892;55.640;37.532;2023-10-08T03:32:11;95464.03;;;6.09;59.73
43298;BME280;28892;55.640;37.532;2023-10-08T03:34:47;95452.22;;;6.12;59.58
43298;BME280;28892;55.640;37.532;2023-10-08T03:37:17;95461.72;;;6.13;59.69
43298;BME280;28892;55.640;37.532;2023-10-08T03:39:57;95465.88;;;6.09;59.95
43298;BME280;28892;55.640;37.532;2023-10-08T03:42:29;95448.16;;;6.54;58.92
43298;BME280;28892;55.640;37.532;2023-10-08T03:45:00;95452.31;;;6.00;60.26
43298;BME280;28892;55.640;37.532;2023-10-08T03:47:37;95466.34;;;6.06;60.34
43298;BME280;28892;55.640;37.532;2023-10-08T03:50:08;95469.81;;;5.89;61.33
43298;BME280;28892;55.640;37.532;2023-10-08T03:52:36;95487.47;;;6.11;60.81
43298;BME280;28892;55.640;37.532;2023-10-08T03:55:23;95463.66;;;6.00;62.03
43298;BME280;28892;55.640;37.532;2023-10-08T03:58:22;95477.19;;;6.32;60.86
43298;BME280;28892;55.640;37.532;2023-10-08T04:01:06;95463.28;;;5.92;61.61
43298;BME280;28892;55.640;37.532;2023-10-08T04:03:39;95466.78;;;5.58;62.79
43298;BME280;28892;55.640;37.532;2023-10-08T04:06:29;95464.41;;;5.56;62.96
43298;BME280;28892;55.640;37.532;2023-10-08T04:09:01;95472.88;;;5.58;62.91
43298;BME280;28892;55.640;37.532;2023-10-08T04:11:30;95479.53;;;5.66;63.08
43298;BME280;28892;55.640;37.532;2023-10-08T04:14:04;95463.78;;;5.49;63.39
43298;BME280;28892;55.640;37.532;2023-10-08T04:16:32;95478.41;;;5.62;63.59
43298;BME280;28892;55.640;37.532;2023-10-08T04:19:03;95453.97;;;5.62;62.86
43298;BME280;28892;55.640;37.532;2023-10-08T04:21:29;95465.34;;;5.67;62.80
43298;BME280;28892;55.640;37.532;2023-10-08T04:23:55;95465.56;;;5.66;62.58
43298;BME280;28892;55.640;37.532;2023-10-08T04:26:32;95460.28;;;5.61;63.02
43298;BME280;28892;55.640;37.532;2023-10-08T04:29:02;95461.47;;;5.53;63.28
43298;BME280;28892;55.640;37.532;2023-10-08T04:31:29;95466.88;;;5.46;62.74
43298;BME280;28892;55.640;37.532;2023-10-08T04:34:06;95476.28;;;5.59;62.69
43298;BME280;28892;55.640;37.532;2023-10-08T04:36:52;95448.47;;;5.85;62.18
43298;BME280;28892;55.640;37.532;2023-10-08T04:39:21;95476.97;;;5.71;61.68
43298;BME280;28892;55.640;37.532;2023-10-08T04:41:48;95468.69;;;5.63;62.32
43298;BME280;28892;55.640;37.532;2023-10-08T04:44:22;95451.13;;;5.46;62.97
43298;BME280;28892;55.640;37.532;2023-10-08T04:47:02;95486.19;;;5.74;61.96
43298;BME280;28892;55.640;37.532;2023-10-08T04:49:53;95463.63;;;5.78;61.07
43298;BME280;28892;55.640;37.532;2023-10-08T04:52:22;95482.44;;;5.87;60.80
43298;BME280;28892;55.640;37.532;2023-10-08T04:54:53;95454.03;;;5.89;60.22
43298;BME280;28892;55.640;37.532;2023-10-08T04:57:21;95473.34;;;6.00;60.28
43298;BME280;28892;55.640;37.532;2023-10-08T04:59:52;95471.88;;;6.04;59.55
43298;BME280;28892;55.640;37.532;2023-10-08T05:02:19;95478.63;;;6.00;60.13
43298;BME280;28892;55.640;37.532;2023-10-08T05:04:50;95473.63;;;5.98;59.08
43298;BME280;28892;55.640;37.532;2023-10-08T05:07:43;95478.13;;;5.81;59.70
43298;BME280;28892;55.640;37.532;2023-10-08T05:10:16;95494.00;;;5.86;60.63
43298;BME280;28892;55.640;37.532;2023-10-08T05:12:52;95476.66;;;5.90;59.64
43298;BME280;28892;55.640;37.532;2023-10-08T05:15:33;95469.59;;;6.13;60.07
43298;BME280;28892;55.640;37.532;2023-10-08T05:18:04;95473.09;;;5.57;60.97
43298;BME280;28892;55.640;37.532;2023-10-08T05:20:57;95476.00;;;6.00;60.25
43298;BME280;28892;55.640;37.532;2023-10-08T05:23:38;95493.50;;;5.89;60.66
43298;BME280;28892;55.640;37.532;2023-10-08T05:26:38;95493.50;;;5.89;60.72
43298;BME280;28892;55.640;37.532;2023-10-08T05:29:09;95492.13;;;5.86;60.52
43298;BME280;28892;55.640;37.532;2023-10-08T05:32:03;95515.44;;;6.00;60.77
43298;BME280;28892;55.640;37.532;2023-10-08T05:35:39;95508.59;;;5.99;59.77
43298;BME280;28892;55.640;37.532;2023-10-08T05:38:09;95492.63;;;5.83;60.00
43298;BME280;28892;55.640;37.532;2023-10-08T05:41:07;95499.81;;;5.88;60.09
43298;BME280;28892;55.640;37.532;2023-10-08T05:43:54;95487.47;;;5.71;60.04
43298;BME280;28892;55.640;37.532;2023-10-08T05:46:48;95479.66;;;5.99;59.22
43298;BME280;28892;55.640;37.532;2023-10-08T05:49:27;95494.41;;;5.78;59.80
43298;BME280;28892;55.640;37.532;2023-10-08T05:52:14;95490.31;;;5.48;60.41
43298;BME280;28892;55.640;37.532;2023-10-08T05:54:50;95508.06;;;5.57;60.85
43298;BME280;28892;55.640;37.532;2023-10-08T05:57:55;95500.59;;;5.49;60.86
43298;BME280;28892;55.640;37.532;2023-10-08T06:00:50;95509.03;;;5.51;61.31
43298;BME280;28892;55.640;37.532;2023-10-08T06:03:17;95507.16;;;5.69;60.45
43298;BME280;28892;55.640;37.532;2023-10-08T06:06:04;95502.25;;;5.38;61.83
43298;BME280;28892;55.640;37.532;2023-10-08T06:08:42;95504.09;;;5.55;60.46
43298;BME280;28892;55.640;37.532;2023-10-08T06:11:33;95521.66;;;5.71;59.91
43298;BME280;28892;55.640;37.532;2023-10-08T06:14:05;95517.13;;;5.67;59.67
43298;BME280;28892;55.640;37.532;2023-10-08T06:16:54;95503.69;;;5.85;60.03
43298;BME280;28892;55.640;37.532;2023-10-08T06:19:43;95516.50;;;5.59;59.90
43298;BME280;28892;55.640;37.532;2023-10-08T06:22:09;95510.69;;;5.40;60.56
43298;BME280;28892;55.640;37.532;2023-10-08T06:24:35;95526.94;;;5.54;59.93
43298;BME280;28892;55.640;37.532;2023-10-08T06:27:04;95525.72;;;5.62;59.41
43298;BME280;28892;55.640;37.532;2023-10-08T06:29:35;95519.66;;;6.01;58.24
43298;BME280;28892;55.640;37.532;2023-10-08T06:32:00;95531.28;;;5.83;58.59
43298;BME280;28892;55.640;37.532;2023-10-08T06:34:30;95515.03;;;5.86;58.49
43298;BME280;28892;55.640;37.532;2023-10-08T06:36:59;95533.25;;;5.93;58.34
43298;BME280;28892;55.640;37.532;2023-10-08T06:39:27;95533.09;;;5.99;57.42
43298;BME280;28892;55.640;37.532;2023-10-08T06:42:21;95520.97;;;5.98;57.69
43298;BME280;28892;55.640;37.532;2023-10-08T06:44:58;95539.72;;;6.02;57.17
43298;BME280;28892;55.640;37.532;2023-10-08T06:47:24;95539.78;;;6.07;57.31
43298;BME280;28892;55.640;37.532;2023-10-08T06:49:52;95518.97;;;6.06;57.28
43298;BME280;28892;55.640;37.532;2023-10-08T06:56:38;95532.47;;;5.92;56.90
43298;BME280;28892;55.640;37.532;2023-10-08T06:59:06;95541.00;;;5.82;56.99
43298;BME280;28892;55.640;37.532;2023-10-08T07:01:35;95531.44;;;5.76;57.60
43298;BME280;28892;55.640;37.532;2023-10-08T07:04:27;95543.22;;;6.08;56.84
43298;BME280;28892;55.640;37.532;2023-10-08T07:06:52;95525.44;;;5.98;56.97
43298;BME280;28892;55.640;37.532;2023-10-08T07:09:19;95530.63;;;5.93;57.68
43298;BME280;28892;55.640;37.532;2023-10-08T07:11:50;95544.50;;;6.27;56.01
43298;BME280;28892;55.640;37.532;2023-10-08T07:14:25;95533.94;;;5.66;57.69
43298;BME280;28892;55.640;37.532;2023-10-08T07:16:56;95563.41;;;5.51;58.18
43298;BME280;28892;55.640;37.532;2023-10-08T07:19:25;95555.50;;;5.85;56.91
43298;BME280;28892;55.640;37.532;2023-10-08T07:22:00;95552.88;;;5.85;58.05
43298;BME280;28892;55.640;37.532;2023-10-08T07:24:51;95536.31;;;5.84;56.40
43298;BME280;28892;55.640;37.532;2023-10-08T07:27:42;95548.78;;;5.94;56.40
43298;BME280;28892;55.640;37.532;2023-10-08T07:30:11;95563.22;;;6.09;56.22
43298;BME280;28892;55.640;37.532;2023-10-08T07:32:58;95560.34;;;6.10;55.94
43298;BME280;28892;55.640;37.532;2023-10-08T07:35:30;95556.72;;;5.60;57.08
43298;BME280;28892;55.640;37.532;2023-10-08T07:41:04;95533.34;;;5.81;56.33
43298;BME280;28892;55.640;37.532;2023-10-08T07:43:34;95549.81;;;5.93;56.33
43298;BME280;28892;55.640;37.532;2023-10-08T07:46:05;95525.44;;;5.58;56.23
43298;BME280;28892;55.640;37.532;2023-10-08T07:48:37;95561.50;;;5.80;55.93
43298;BME280;28892;55.640;37.532;2023-10-08T07:51:08;95540.34;;;6.32;55.73
43298;BME280;28892;55.640;37.532;2023-10-08T07:53:44;95558.34;;;6.00;55.16
43298;BME280;28892;55.640;37.532;2023-10-08T07:56:14;95547.50;;;5.97;55.21
43298;BME280;28892;55.640;37.532;2023-10-08T07:59:08;95566.59;;;6.04;55.62
43298;BME280;28892;55.640;37.532;2023-10-08T08:01:34;95565.00;;;6.03;55.38
43298;BME280;28892;55.640;37.532;2023-10-08T08:04:03;95559.56;;;6.10;55.21
43298;BME280;28892;55.640;37.532;2023-10-08T08:06:32;95575.94;;;6.17;55.77
43298;BME280;28892;55.640;37.532;2023-10-08T08:09:06;95574.66;;;6.20;55.13
43298;BME280;28892;55.640;37.532;2023-10-08T08:11:51;95563.97;;;6.26;55.26
43298;BME280;28892;55.640;37.532;2023-10-08T08:14:37;95577.25;;;5.97;55.67
43298;BME280;28892;55.640;37.532;2023-10-08T08:17:26;95586.41;;;6.12;55.51
43298;BME280;28892;55.640;37.532;2023-10-08T08:19:52;95581.38;;;5.93;55.46
43298;BME280;28892;55.640;37.532;2023-10-08T08:22:26;95569.78;;;5.89;56.18
43298;BME280;28892;55.640;37.532;2023-10-08T08:24:57;95585.31;;;5.91;55.84
43298;BME280;28892;55.640;37.532;2023-10-08T08:27:42;95586.19;;;6.13;55.08
43298;BME280;28892;55.640;37.532;2023-10-08T08:30:15;95594.13;;;6.19;54.02
43298;BME280;28892;55.640;37.532;2023-10-08T08:32:45;95595.72;;;6.20;54.53
43298;BME280;28892;55.640;37.532;2023-10-08T08:38:14;95597.03;;;5.66;55.66
43298;BME280;28892;55.640;37.532;2023-10-08T08:40:49;95609.28;;;5.94;56.08
43298;BME280;28892;55.640;37.532;2023-10-08T08:43:24;95585.56;;;6.06;55.08
43298;BME280;28892;55.640;37.532;2023-10-08T08:45:51;95600.03;;;6.26;54.32
43298;BME280;28892;55.640;37.532;2023-10-08T08:48:18;95596.94;;;5.95;54.87
43298;BME280;28892;55.640;37.532;2023-10-08T08:50:46;95594.34;;;6.56;53.55
43298;BME280;28892;55.640;37.532;2023-10-08T08:53:14;95605.09;;;6.33;54.01
43298;BME280;28892;55.640;37.532;2023-10-08T08:55:43;95547.50;;;6.36;54.48
43298;BME280;28892;55.640;37.532;2023-10-08T08:58:09;95609.50;;;6.49;53.60
43298;BME280;28892;55.640;37.532;2023-10-08T09:00:40;95593.94;;;6.25;54.42
43298;BME280;28892;55.640;37.532;2023-10-08T09:03:08;95600.63;;;6.33;54.57
43298;BME280;28892;55.640;37.532;2023-10-08T09:05:59;95584.59;;;6.57;53.94
43298;BME280;28892;55.640;37.532;2023-10-08T09:08:48;95600.44;;;6.18;53.70
43298;BME280;28892;55.640;37.532;2023-10-08T09:11:16;95608.66;;;6.21;53.93
43298;BME280;28892;55.640;37.532;2023-10-08T09:13:44;95612.19;;;6.10;54.27
43298;BME280;28892;55.640;37.532;2023-10-08T09:16:26;95610.50;;;6.43;54.58
43298;BME280;28892;55.640;37.532;2023-10-08T09:19:05;95611.47;;;6.37;53.51
43298;BME280;28892;55.640;37.532;2023-10-08T09:22:14;95626.75;;;6.57;53.67
43298;BME280;28892;55.640;37.532;2023-10-08T09:28:26;95585.63;;;6.34;53.79
43298;BME280;28892;55.640;37.532;2023-10-08T09:31:05;95603.69;;;6.25;54.36
43298;BME280;28892;55.640;37.532;2023-10-08T09:34:05;95611.34;;;6.49;53.23
43298;BME280;28892;55.640;37.532;2023-10-08T09:41:03;95608.97;;;6.47;53.52
43298;BME280;28892;55.640;37.532;2023-10-08T09:43:37;95618.13;;;6.45;53.11
43298;BME280;28892;55.640;37.532;2023-10-08T09:46:37;95617.84;;;6.63;53.19
43298;BME280;28892;55.640;37.532;2023-10-08T09:49:42;95645.09;;;6.74;53.27
43298;BME280;28892;55.640;37.532;2023-10-08T09:56:07;95653.25;;;6.73;53.72
43298;BME280;28892;55.640;37.532;2023-10-08T09:58:32;95634.81;;;6.50;54.08
43298;BME280;28892;55.640;37.532;2023-10-08T10:01:14;95650.63;;;6.33;54.77
43298;BME280;28892;55.640;37.532;2023-10-08T10:03:45;95641.47;;;6.36;55.17
43298;BME280;28892;55.640;37.532;2023-10-08T10:06:17;95663.06;;;6.38;54.82
43298;BME280;28892;55.640;37.532;2023-10-08T10:08:59;95634.19;;;6.43;55.63
43298;BME280;28892;55.640;37.532;2023-10-08T10:11:32;95641.16;;;6.32;55.47
43298;BME280;28892;55.640;37.532;2023-10-08T10:14:22;95647.09;;;6.45;55.78
43298;BME280;28892;55.640;37.532;2023-10-08T10:17:13;95645.50;;;6.43;56.02
43298;BME280;28892;55.640;37.532;2023-10-08T10:19:40;95639.72;;;6.24;56.62
43298;BME280;28892;55.640;37.532;2023-10-08T10:22:14;95655.16;;;6.15;56.83
43298;BME280;28892;55.640;37.532;2023-10-08T10:25:03;95653.72;;;6.08;57.62
43298;BME280;28892;55.640;37.532;2023-10-08T10:31:28;95665.25;;;6.07;57.72
43298;BME280;28892;55.640;37.532;2023-10-08T10:34:22;95656.25;;;5.68;58.93
43298;BME280;28892;55.640;37.532;2023-10-08T10:37:24;95655.38;;;5.80;59.55
43298;BME280;28892;55.640;37.532;2023-10-08T10:43:20;95654.47;;;5.11;61.63
43298;BME280;28892;55.640;37.532;2023-10-08T10:45:46;95676.38;;;5.16;62.54
43298;BME280;28892;55.640;37.532;2023-10-08T10:48:17;95653.41;;;5.24;61.89
43298;BME280;28892;55.640;37.532;2023-10-08T10:50:50;95671.69;;;5.48;61.03
43298;BME280;28892;55.640;37.532;2023-10-08T10:53:38;95675.84;;;5.14;62.31
43298;BME280;28892;55.640;37.532;2023-10-08T10:56:25;95695.16;;;5.08;62.94
43298;BME280;28892;55.640;37.532;2023-10-08T10:59:11;95680.34;;;4.90;64.10
43298;BME280;28892;55.640;37.532;2023-10-08T11:01:51;95679.28;;;5.03;63.25
43298;BME280;28892;55.640;37.532;2023-10-08T11:04:42;95677.44;;;5.03;63.30
43298;BME280;28892;55.640;37.532;2023-10-08T11:07:38;95692.44;;;5.03;63.79
43298;BME280;28892;55.640;37.532;2023-10-08T11:10:12;95688.69;;;4.99;63.46
43298;BME280;28892;55.640;37.532;2023-10-08T11:12:59;95700.56;;;5.30;62.64
43298;BME280;28892;55.640;37.532;2023-10-08T11:15:28;95691.72;;;4.67;64.60
43298;BME280;28892;55.640;37.532;2023-10-08T11:18:25;95692.25;;;4.81;64.44
43298;BME280;28892;55.640;37.532;2023-10-08T11:21:16;95696.19;;;4.30;66.59
43298;BME280;28892;55.640;37.532;2023-10-08T11:23:53;95686.28;;;4.44;65.51
43298;BME280;28892;55.640;37.532;2023-10-08T11:26:24;95696.09;;;4.49;65.42
43298;BME280;28892;55.640;37.532;2023-10-08T11:29:15;95706.34;;;4.39;65.99
43298;BME280;28892;55.640;37.532;2023-10-08T11:32:04;95690.72;;;4.56;65.79
43298;BME280;28892;55.640;37.532;2023-10-08T11:34:33;95699.22;;;4.75;65.24
43298;BME280;28892;55.640;37.532;2023-10-08T11:37:05;95692.16;;;4.64;65.38
43298;BME280;28892;55.640;37.532;2023-10-08T11:39:54;95697.41;;;4.64;64.84
43298;BME280;28892;55.640;37.532;2023-10-08T11:42:27;95691.19;;;4.29;66.26
43298;BME280;28892;55.640;37.532;2023-10-08T11:45:12;95697.66;;;4.38;66.31
43298;BME280;28892;55.640;37.532;2023-10-08T11:52:21;95683.56;;;4.39;65.54
43298;BME280;28892;55.640;37.532;2023-10-08T11:55:13;95697.81;;;4.55;66.09
43298;BME280;28892;55.640;37.532;2023-10-08T11:57:57;95682.41;;;4.35;66.13
43298;BME280;28892;55.640;37.532;2023-10-08T12:00:44;95681.13;;;4.50;66.49
43298;BME280;28892;55.640;37.532;2023-10-08T12:03:25;95679.22;;;4.45;65.62
43298;BME280;28892;55.640;37.532;2023-10-08T12:06:12;95694.59;;;4.53;65.56
43298;BME280;28892;55.640;37.532;2023-10-08T12:12:28;95680.81;;;4.34;66.70
43298;BME280;28892;55.640;37.532;2023-10-08T12:14:59;95683.16;;;4.59;65.41
43298;BME280;28892;55.640;37.532;2023-10-08T12:17:35;95687.97;;;4.03;67.13
43298;BME280;28892;55.640;37.532;2023-10-08T12:20:14;95679.66;;;4.42;66.80
43298;BME280;28892;55.640;37.532;2023-10-08T12:22:52;95691.75;;;4.31;67.05
43298;BME280;28892;55.640;37.532;2023-10-08T12:25:18;95693.81;;;4.29;67.02
43298;BME280;28892;55.640;37.532;2023-10-08T12:28:07;95695.28;;;4.25;66.70
43298;BME280;28892;55.640;37.532;2023-10-08T12:30:40;95701.34;;;4.25;66.58
43298;BME280;28892;55.640;37.532;2023-10-08T12:33:14;95697.78;;;4.31;66.92
43298;BME280;28892;55.640;37.532;2023-10-08T12:35:43;95702.59;;;4.23;67.38
43298;BME280;28892;55.640;37.532;2023-10-08T12:38:10;95709.03;;;3.84;68.53
43298;BME280;28892;55.640;37.532;2023-10-08T12:40:42;95691.06;;;4.00;68.67
43298;BME280;28892;55.640;37.532;2023-10-08T12:43:23;95691.16;;;4.05;67.65
43298;BME280;28892;55.640;37.532;2023-10-08T12:45:53;95694.81;;;4.04;67.56
43298;BME280;28892;55.640;37.532;2023-10-08T12:48:24;95713.19;;;4.16;67.61
43298;BME280;28892;55.640;37.532;2023-10-08T12:50:54;95699.75;;;4.24;67.13
43298;BME280;28892;55.640;37.532;2023-10-08T12:53:28;95687.66;;;4.23;67.38
43298;BME280;28892;55.640;37.532;2023-10-08T12:56:10;95682.84;;;4.20;66.80
43298;BME280;28892;55.640;37.532;2023-10-08T12:58:43;95687.19;;;4.26;66.66
43298;BME280;28892;55.640;37.532;2023-10-08T13:01:17;95682.06;;;4.31;67.19
43298;BME280;28892;55.640;37.532;2023-10-08T13:03:46;95689.13;;;4.31;66.82
43298;BME280;28892;55.640;37.532;2023-10-08T13:06:19;95703.50;;;4.40;67.07
43298;BME280;28892;55.640;37.532;2023-10-08T13:08:57;95680.13;;;4.39;67.14
43298;BME280;28892;55.640;37.532;2023-10-08T13:11:45;95696.88;;;4.02;67.54
43298;BME280;28892;55.640;37.532;2023-10-08T13:14:11;95708.41;;;4.13;67.80
43298;BME280;28892;55.640;37.532;2023-10-08T13:16:43;95690.16;;;4.30;66.73
43298;BME280;28892;55.640;37.532;2023-10-08T13:19:19;95689.81;;;4.38;66.97
43298;BME280;28892;55.640;37.532;2023-10-08T13:21:47;95697.88;;;3.89;67.66
43298;BME280;28892;55.640;37.532;2023-10-08T13:24:19;95693.88;;;3.74;68.26
43298;BME280;28892;55.640;37.532;2023-10-08T13:26:50;95681.72;;;4.04;67.49
43298;BME280;28892;55.640;37.532;2023-10-08T13:29:30;95697.78;;;4.08;67.37
43298;BME280;28892;55.640;37.532;2023-10-08T13:31:59;95694.94;;;4.33;66.27
43298;BME280;28892;55.640;37.532;2023-10-08T13:34:25;95678.75;;;4.24;66.15
43298;BME280;28892;55.640;37.532;2023-10-08T13:36:52;95698.00;;;3.94;67.21
43298;BME280;28892;55.640;37.532;2023-10-08T13:39:21;95686.63;;;3.88;67.67
43298;BME280;28892;55.640;37.532;2023-10-08T13:41:47;95710.56;;;3.92;67.07
43298;BME280;28892;55.640;37.532;2023-10-08T13:44:18;95695.50;;;3.87;67.62
43298;BME280;28892;55.640;37.532;2023-10-08T13:46:52;95706.66;;;3.95;67.53
43298;BME280;28892;55.640;37.532;2023-10-08T13:49:25;95695.16;;;3.84;67.54
43298;BME280;28892;55.640;37.532;2023-10-08T13:51:55;95697.75;;;3.72;67.94
43298;BME280;28892;55.640;37.532;2023-10-08T13:54:26;95701.06;;;3.79;67.92
43298;BME280;28892;55.640;37.532;2023-10-08T13:56:59;95693.16;;;3.67;68.04
43298;BME280;28892;55.640;37.532;2023-10-08T13:59:29;95692.22;;;3.49;68.72
43298;BME280;28892;55.640;37.532;2023-10-08T14:01:56;95700.13;;;3.61;68.47
43298;BME280;28892;55.640;37.532;2023-10-08T14:04:22;95703.44;;;3.69;68.13
43298;BME280;28892;55.640;37.532;2023-10-08T14:07:03;95717.78;;;3.66;68.29
43298;BME280;28892;55.640;37.532;2023-10-08T14:09:29;95685.50;;;3.54;68.33
43298;BME280;28892;55.640;37.532;2023-10-08T14:12:10;95698.41;;;3.25;69.26
43298;BME280;28892;55.640;37.532;2023-10-08T14:14:50;95682.63;;;3.43;69.45
43298;BME280;28892;55.640;37.532;2023-10-08T14:21:26;95700.59;;;3.70;68.57
43298;BME280;28892;55.640;37.532;2023-10-08T14:24:23;95708.56;;;3.63;69.24
43298;BME280;28892;55.640;37.532;2023-10-08T14:29:59;95686.84;;;3.32;69.53